sensor_id;sensor_type;location;lat;lon;timestamp;P1;durP1;ratioP1;P2;durP2;ratioP2
80799;SDS011;70202;52.238;10.680;2024-02-21T00:00:21;1.13;;;0.40;;
80799;SDS011;70202;52.238;10.680;2024-02-21T00:01:22;1.23;;;0.52;;
80799;SDS011;70202;52.238;10.680;2024-02-21T00:02:22;0.93;;;0.60;;
80799;SDS011;70202;52.238;10.680;2024-02-21T00:03:23;1.05;;;0.68;;
80799;SDS011;70202;52.238;10.680;2024-02-21T00:04:23;0.57;;;0.40;;
80799;SDS011;70202;52.238;10.680;2024-02-21T00:05:24;1.27;;;0.60;;
80799;SDS011;70202;52.238;10.680;2024-02-21T00:06:24;1.15;;;0.43;;
80799;SDS011;70202;52.238;10.680;2024-02-21T00:07:26;0.57;;;0.35;;
80799;SDS011;70202;52.238;10.680;2024-02-21T00:08:26;0.68;;;0.38;;
80799;SDS011;70202;52.238;10.680;2024-02-21T00:09:26;1.38;;;0.60;;
80799;SDS011;70202;52.238;10.680;2024-02-21T00:10:27;1.33;;;0.47;;
80799;SDS011;70202;52.238;10.680;2024-02-21T00:11:28;1.27;;;0.70;;
80799;SDS011;70202;52.238;10.680;2024-02-21T00:12:28;0.88;;;0.52;;
80799;SDS011;70202;52.238;10.680;2024-02-21T00:13:28;1.70;;;0.60;;
80799;SDS011;70202;52.238;10.680;2024-02-21T00:14:29;1.95;;;0.80;;
80799;SDS011;70202;52.238;10.680;2024-02-21T00:15:30;0.80;;;0.43;;
80799;SDS011;70202;52.238;10.680;2024-02-21T00:16:30;0.63;;;0.47;;
80799;SDS011;70202;52.238;10.680;2024-02-21T00:17:31;0.98;;;0.50;;
80799;SDS011;70202;52.238;10.680;2024-02-21T00:18:31;0.63;;;0.43;;
80799;SDS011;70202;52.238;10.680;2024-02-21T00:19:31;1.15;;;0.52;;
80799;SDS011;70202;52.238;10.680;2024-02-21T00:20:32;1.15;;;0.47;;
80799;SDS011;70202;52.238;10.680;2024-02-21T00:21:32;1.42;;;0.50;;
80799;SDS011;70202;52.238;10.680;2024-02-21T00:22:32;1.67;;;0.68;;
80799;SDS011;70202;52.238;10.680;2024-02-21T00:23:33;1.05;;;0.50;;
80799;SDS011;70202;52.238;10.680;2024-02-21T00:24:33;0.88;;;0.60;;
80799;SDS011;70202;52.238;10.680;2024-02-21T00:25:34;1.38;;;0.60;;
80799;SDS011;70202;52.238;10.680;2024-02-21T00:26:34;1.10;;;0.50;;
80799;SDS011;70202;52.238;10.680;2024-02-21T00:27:35;1.23;;;0.50;;
80799;SDS011;70202;52.238;10.680;2024-02-21T00:28:35;0.90;;;0.50;;
80799;SDS011;70202;52.238;10.680;2024-02-21T00:29:35;0.50;;;0.40;;
80799;SDS011;70202;52.238;10.680;2024-02-21T00:30:36;1.35;;;0.50;;
80799;SDS011;70202;52.238;10.680;2024-02-21T00:31:38;1.67;;;0.50;;
80799;SDS011;70202;52.238;10.680;2024-02-21T00:32:38;1.23;;;0.60;;
80799;SDS011;70202;52.238;10.680;2024-02-21T00:33:38;0.80;;;0.35;;
80799;SDS011;70202;52.238;10.680;2024-02-21T00:34:39;1.25;;;0.52;;
80799;SDS011;70202;52.238;10.680;2024-02-21T00:35:39;0.52;;;0.38;;
80799;SDS011;70202;52.238;10.680;2024-02-21T00:36:40;0.98;;;0.43;;
80799;SDS011;70202;52.238;10.680;2024-02-21T00:37:40;1.35;;;0.57;;
80799;SDS011;70202;52.238;10.680;2024-02-21T00:38:40;2.00;;;0.80;;
80799;SDS011;70202;52.238;10.680;2024-02-21T00:39:41;1.10;;;0.50;;
80799;SDS011;70202;52.238;10.680;2024-02-21T00:40:42;1.30;;;0.60;;
80799;SDS011;70202;52.238;10.680;2024-02-21T00:41:43;0.70;;;0.32;;
80799;SDS011;70202;52.238;10.680;2024-02-21T00:42:43;1.08;;;0.55;;
80799;SDS011;70202;52.238;10.680;2024-02-21T00:43:43;1.05;;;0.52;;
80799;SDS011;70202;52.238;10.680;2024-02-21T00:44:44;1.33;;;0.50;;
80799;SDS011;70202;52.238;10.680;2024-02-21T00:45:44;1.08;;;0.60;;
80799;SDS011;70202;52.238;10.680;2024-02-21T00:46:44;1.88;;;0.70;;
80799;SDS011;70202;52.238;10.680;2024-02-21T00:47:46;0.88;;;0.47;;
80799;SDS011;70202;52.238;10.680;2024-02-21T00:48:46;0.63;;;0.32;;
80799;SDS011;70202;52.238;10.680;2024-02-21T00:49:47;1.55;;;0.60;;
80799;SDS011;70202;52.238;10.680;2024-02-21T00:50:47;1.60;;;0.63;;
80799;SDS011;70202;52.238;10.680;2024-02-21T00:51:48;1.25;;;0.63;;
80799;SDS011;70202;52.238;10.680;2024-02-21T00:52:48;2.05;;;0.70;;
80799;SDS011;70202;52.238;10.680;2024-02-21T00:53:48;1.45;;;0.70;;
80799;SDS011;70202;52.238;10.680;2024-02-21T00:54:49;1.30;;;0.55;;
80799;SDS011;70202;52.238;10.680;2024-02-21T00:55:49;1.70;;;0.60;;
80799;SDS011;70202;52.238;10.680;2024-02-21T00:56:50;1.25;;;0.50;;
80799;SDS011;70202;52.238;10.680;2024-02-21T00:57:50;1.48;;;0.65;;
80799;SDS011;70202;52.238;10.680;2024-02-21T00:58:50;1.33;;;0.50;;
80799;SDS011;70202;52.238;10.680;2024-02-21T00:59:51;1.35;;;0.68;;
80799;SDS011;70202;52.238;10.680;2024-02-21T01:00:51;0.82;;;0.40;;
80799;SDS011;70202;52.238;10.680;2024-02-21T01:01:52;1.35;;;0.70;;
80799;SDS011;70202;52.238;10.680;2024-02-21T01:02:52;1.35;;;0.60;;
80799;SDS011;70202;52.238;10.680;2024-02-21T01:03:52;2.13;;;0.75;;
80799;SDS011;70202;52.238;10.680;2024-02-21T01:04:53;0.73;;;0.47;;
80799;SDS011;70202;52.238;10.680;2024-02-21T01:05:53;1.77;;;0.80;;
80799;SDS011;70202;52.238;10.680;2024-02-21T01:06:54;2.10;;;0.80;;
80799;SDS011;70202;52.238;10.680;2024-02-21T01:07:54;1.42;;;0.60;;
80799;SDS011;70202;52.238;10.680;2024-02-21T01:08:55;2.25;;;0.80;;
80799;SDS011;70202;52.238;10.680;2024-02-21T01:09:55;0.73;;;0.55;;
80799;SDS011;70202;52.238;10.680;2024-02-21T01:10:55;1.35;;;0.60;;
80799;SDS011;70202;52.238;10.680;2024-02-21T01:11:56;0.75;;;0.50;;
80799;SDS011;70202;52.238;10.680;2024-02-21T01:12:56;2.33;;;0.95;;
80799;SDS011;70202;52.238;10.680;2024-02-21T01:13:57;0.88;;;0.52;;
80799;SDS011;70202;52.238;10.680;2024-02-21T01:14:57;1.13;;;0.60;;
80799;SDS011;70202;52.238;10.680;2024-02-21T01:15:58;0.88;;;0.55;;
80799;SDS011;70202;52.238;10.680;2024-02-21T01:16:58;2.25;;;0.82;;
80799;SDS011;70202;52.238;10.680;2024-02-21T01:17:59;0.63;;;0.40;;
80799;SDS011;70202;52.238;10.680;2024-02-21T01:18:59;1.35;;;0.68;;
80799;SDS011;70202;52.238;10.680;2024-02-21T01:19:59;2.42;;;0.98;;
80799;SDS011;70202;52.238;10.680;2024-02-21T01:21:00;1.55;;;0.73;;
80799;SDS011;70202;52.238;10.680;2024-02-21T01:22:00;1.13;;;0.50;;
80799;SDS011;70202;52.238;10.680;2024-02-21T01:23:01;1.02;;;0.65;;
80799;SDS011;70202;52.238;10.680;2024-02-21T01:24:01;1.83;;;0.65;;
80799;SDS011;70202;52.238;10.680;2024-02-21T01:25:02;1.20;;;0.73;;
80799;SDS011;70202;52.238;10.680;2024-02-21T01:26:03;2.00;;;0.90;;
80799;SDS011;70202;52.238;10.680;2024-02-21T01:27:04;0.77;;;0.50;;
80799;SDS011;70202;52.238;10.680;2024-02-21T01:28:04;1.55;;;0.63;;
80799;SDS011;70202;52.238;10.680;2024-02-21T01:29:05;1.45;;;0.70;;
80799;SDS011;70202;52.238;10.680;2024-02-21T01:30:05;0.95;;;0.55;;
80799;SDS011;70202;52.238;10.680;2024-02-21T01:31:07;1.95;;;0.80;;
80799;SDS011;70202;52.238;10.680;2024-02-21T01:32:07;1.67;;;0.77;;
80799;SDS011;70202;52.238;10.680;2024-02-21T01:33:08;1.08;;;0.65;;
80799;SDS011;70202;52.238;10.680;2024-02-21T01:34:09;1.25;;;0.63;;
80799;SDS011;70202;52.238;10.680;2024-02-21T01:35:09;1.33;;;0.65;;
80799;SDS011;70202;52.238;10.680;2024-02-21T01:36:10;1.13;;;0.60;;
80799;SDS011;70202;52.238;10.680;2024-02-21T01:37:10;1.52;;;0.70;;
80799;SDS011;70202;52.238;10.680;2024-02-21T01:38:12;1.77;;;0.80;;
80799;SDS011;70202;52.238;10.680;2024-02-21T01:39:13;1.08;;;0.50;;
80799;SDS011;70202;52.238;10.680;2024-02-21T01:40:14;1.13;;;0.63;;
80799;SDS011;70202;52.238;10.680;2024-02-21T01:41:15;1.38;;;0.70;;
80799;SDS011;70202;52.238;10.680;2024-02-21T01:42:16;1.20;;;0.57;;
80799;SDS011;70202;52.238;10.680;2024-02-21T01:43:17;1.13;;;0.65;;
80799;SDS011;70202;52.238;10.680;2024-02-21T01:44:19;1.38;;;0.80;;
80799;SDS011;70202;52.238;10.680;2024-02-21T01:45:19;1.50;;;0.70;;
80799;SDS011;70202;52.238;10.680;2024-02-21T01:46:20;1.02;;;0.60;;
80799;SDS011;70202;52.238;10.680;2024-02-21T01:47:20;1.02;;;0.55;;
80799;SDS011;70202;52.238;10.680;2024-02-21T01:48:21;1.48;;;0.70;;
80799;SDS011;70202;52.238;10.680;2024-02-21T01:49:23;1.58;;;0.70;;
80799;SDS011;70202;52.238;10.680;2024-02-21T01:50:24;1.35;;;0.70;;
80799;SDS011;70202;52.238;10.680;2024-02-21T01:51:24;1.13;;;0.73;;
80799;SDS011;70202;52.238;10.680;2024-02-21T01:52:25;1.15;;;0.60;;
80799;SDS011;70202;52.238;10.680;2024-02-21T01:53:36;2.03;;;0.77;;
80799;SDS011;70202;52.238;10.680;2024-02-21T01:54:42;1.42;;;0.77;;
80799;SDS011;70202;52.238;10.680;2024-02-21T01:55:45;1.65;;;0.77;;
80799;SDS011;70202;52.238;10.680;2024-02-21T01:56:46;1.30;;;0.85;;
80799;SDS011;70202;52.238;10.680;2024-02-21T01:57:47;1.48;;;0.95;;
80799;SDS011;70202;52.238;10.680;2024-02-21T01:58:48;1.05;;;0.63;;
80799;SDS011;70202;52.238;10.680;2024-02-21T01:59:49;1.13;;;0.60;;
80799;SDS011;70202;52.238;10.680;2024-02-21T02:00:49;1.27;;;0.70;;
80799;SDS011;70202;52.238;10.680;2024-02-21T02:01:51;1.83;;;0.88;;
80799;SDS011;70202;52.238;10.680;2024-02-21T02:02:52;1.42;;;0.73;;
80799;SDS011;70202;52.238;10.680;2024-02-21T02:03:54;2.08;;;0.90;;
80799;SDS011;70202;52.238;10.680;2024-02-21T02:04:55;1.52;;;0.82;;
80799;SDS011;70202;52.238;10.680;2024-02-21T02:05:56;1.75;;;0.90;;
80799;SDS011;70202;52.238;10.680;2024-02-21T02:06:57;1.55;;;0.75;;
80799;SDS011;70202;52.238;10.680;2024-02-21T02:08:02;1.70;;;0.70;;
80799;SDS011;70202;52.238;10.680;2024-02-21T02:09:03;1.90;;;1.00;;
80799;SDS011;70202;52.238;10.680;2024-02-21T02:10:04;1.67;;;0.90;;
80799;SDS011;70202;52.238;10.680;2024-02-21T02:11:04;1.17;;;0.77;;
80799;SDS011;70202;52.238;10.680;2024-02-21T02:12:06;1.63;;;0.93;;
80799;SDS011;70202;52.238;10.680;2024-02-21T02:13:07;1.60;;;0.98;;
80799;SDS011;70202;52.238;10.680;2024-02-21T02:14:08;1.33;;;0.90;;
80799;SDS011;70202;52.238;10.680;2024-02-21T02:15:08;1.58;;;0.70;;
80799;SDS011;70202;52.238;10.680;2024-02-21T02:16:09;1.35;;;0.75;;
80799;SDS011;70202;52.238;10.680;2024-02-21T02:17:09;1.42;;;0.90;;
80799;SDS011;70202;52.238;10.680;2024-02-21T02:18:10;1.35;;;0.80;;
80799;SDS011;70202;52.238;10.680;2024-02-21T02:19:12;1.73;;;1.00;;
80799;SDS011;70202;52.238;10.680;2024-02-21T02:20:13;1.75;;;0.90;;
80799;SDS011;70202;52.238;10.680;2024-02-21T02:21:16;1.83;;;0.98;;
80799;SDS011;70202;52.238;10.680;2024-02-21T02:22:30;1.02;;;0.68;;
80799;SDS011;70202;52.238;10.680;2024-02-21T02:24:33;1.13;;;0.70;;
80799;SDS011;70202;52.238;10.680;2024-02-21T02:25:34;2.03;;;1.00;;
80799;SDS011;70202;52.238;10.680;2024-02-21T02:26:35;1.40;;;0.77;;
80799;SDS011;70202;52.238;10.680;2024-02-21T02:27:42;1.40;;;0.80;;
80799;SDS011;70202;52.238;10.680;2024-02-21T02:28:44;1.20;;;0.85;;
80799;SDS011;70202;52.238;10.680;2024-02-21T02:29:44;1.63;;;0.73;;
80799;SDS011;70202;52.238;10.680;2024-02-21T02:30:45;1.77;;;0.90;;
80799;SDS011;70202;52.238;10.680;2024-02-21T02:31:45;1.73;;;0.85;;
80799;SDS011;70202;52.238;10.680;2024-02-21T02:32:45;1.40;;;0.80;;
80799;SDS011;70202;52.238;10.680;2024-02-21T02:33:46;1.63;;;0.90;;
80799;SDS011;70202;52.238;10.680;2024-02-21T02:34:48;1.63;;;0.88;;
80799;SDS011;70202;52.238;10.680;2024-02-21T02:35:48;2.08;;;1.02;;
80799;SDS011;70202;52.238;10.680;2024-02-21T02:36:48;1.40;;;0.80;;
80799;SDS011;70202;52.238;10.680;2024-02-21T02:37:49;2.10;;;0.95;;
80799;SDS011;70202;52.238;10.680;2024-02-21T02:38:50;2.30;;;1.13;;
80799;SDS011;70202;52.238;10.680;2024-02-21T02:39:50;1.23;;;0.80;;
80799;SDS011;70202;52.238;10.680;2024-02-21T02:40:51;1.73;;;0.98;;
80799;SDS011;70202;52.238;10.680;2024-02-21T02:41:51;1.48;;;0.98;;
80799;SDS011;70202;52.238;10.680;2024-02-21T02:42:52;1.45;;;0.73;;
80799;SDS011;70202;52.238;10.680;2024-02-21T02:43:54;1.77;;;1.05;;
80799;SDS011;70202;52.238;10.680;2024-02-21T02:44:55;1.67;;;0.85;;
80799;SDS011;70202;52.238;10.680;2024-02-21T02:45:57;1.42;;;0.80;;
80799;SDS011;70202;52.238;10.680;2024-02-21T02:46:57;1.88;;;0.85;;
80799;SDS011;70202;52.238;10.680;2024-02-21T02:47:58;1.65;;;0.85;;
80799;SDS011;70202;52.238;10.680;2024-02-21T02:48:59;1.45;;;0.80;;
80799;SDS011;70202;52.238;10.680;2024-02-21T02:49:59;2.03;;;1.08;;
80799;SDS011;70202;52.238;10.680;2024-02-21T02:50:59;1.77;;;1.00;;
80799;SDS011;70202;52.238;10.680;2024-02-21T02:52:00;1.98;;;0.98;;
80799;SDS011;70202;52.238;10.680;2024-02-21T02:53:00;2.08;;;1.15;;
80799;SDS011;70202;52.238;10.680;2024-02-21T02:54:00;2.08;;;0.93;;
80799;SDS011;70202;52.238;10.680;2024-02-21T02:55:02;1.23;;;0.68;;
80799;SDS011;70202;52.238;10.680;2024-02-21T02:56:03;1.10;;;0.70;;
80799;SDS011;70202;52.238;10.680;2024-02-21T02:57:03;1.67;;;0.82;;
80799;SDS011;70202;52.238;10.680;2024-02-21T02:58:05;2.25;;;1.10;;
80799;SDS011;70202;52.238;10.680;2024-02-21T02:59:06;1.55;;;0.90;;
80799;SDS011;70202;52.238;10.680;2024-02-21T03:00:07;1.65;;;0.90;;
80799;SDS011;70202;52.238;10.680;2024-02-21T03:01:07;1.95;;;0.90;;
80799;SDS011;70202;52.238;10.680;2024-02-21T03:02:08;2.20;;;1.08;;
80799;SDS011;70202;52.238;10.680;2024-02-21T03:03:08;1.35;;;0.80;;
80799;SDS011;70202;52.238;10.680;2024-02-21T03:04:09;1.67;;;0.90;;
80799;SDS011;70202;52.238;10.680;2024-02-21T03:05:13;1.00;;;0.63;;
80799;SDS011;70202;52.238;10.680;2024-02-21T03:06:14;1.60;;;0.82;;
80799;SDS011;70202;52.238;10.680;2024-02-21T03:07:15;2.17;;;1.10;;
80799;SDS011;70202;52.238;10.680;2024-02-21T03:08:15;1.67;;;0.85;;
80799;SDS011;70202;52.238;10.680;2024-02-21T03:09:16;2.20;;;1.10;;
80799;SDS011;70202;52.238;10.680;2024-02-21T03:10:17;1.58;;;0.95;;
80799;SDS011;70202;52.238;10.680;2024-02-21T03:11:17;1.80;;;1.00;;
80799;SDS011;70202;52.238;10.680;2024-02-21T03:12:18;2.25;;;1.10;;
80799;SDS011;70202;52.238;10.680;2024-02-21T03:13:24;2.08;;;1.00;;
80799;SDS011;70202;52.238;10.680;2024-02-21T03:14:25;1.20;;;0.88;;
80799;SDS011;70202;52.238;10.680;2024-02-21T03:15:25;1.60;;;0.88;;
80799;SDS011;70202;52.238;10.680;2024-02-21T03:16:25;1.63;;;1.00;;
80799;SDS011;70202;52.238;10.680;2024-02-21T03:17:26;1.67;;;1.00;;
80799;SDS011;70202;52.238;10.680;2024-02-21T03:18:29;1.65;;;0.90;;
80799;SDS011;70202;52.238;10.680;2024-02-21T03:19:30;2.05;;;1.10;;
80799;SDS011;70202;52.238;10.680;2024-02-21T03:20:30;1.63;;;0.80;;
80799;SDS011;70202;52.238;10.680;2024-02-21T03:21:30;2.88;;;1.02;;
80799;SDS011;70202;52.238;10.680;2024-02-21T03:22:31;1.52;;;0.93;;
80799;SDS011;70202;52.238;10.680;2024-02-21T03:23:35;1.33;;;0.85;;
80799;SDS011;70202;52.238;10.680;2024-02-21T03:24:35;2.20;;;1.10;;
80799;SDS011;70202;52.238;10.680;2024-02-21T03:25:35;1.98;;;1.15;;
80799;SDS011;70202;52.238;10.680;2024-02-21T03:26:36;1.60;;;0.80;;
80799;SDS011;70202;52.238;10.680;2024-02-21T03:27:36;1.52;;;0.85;;
80799;SDS011;70202;52.238;10.680;2024-02-21T03:28:36;1.52;;;0.90;;
80799;SDS011;70202;52.238;10.680;2024-02-21T03:29:39;1.67;;;1.00;;
80799;SDS011;70202;52.238;10.680;2024-02-21T03:30:40;1.30;;;0.85;;
80799;SDS011;70202;52.238;10.680;2024-02-21T03:31:40;1.70;;;1.00;;
80799;SDS011;70202;52.238;10.680;2024-02-21T03:32:41;1.67;;;0.90;;
80799;SDS011;70202;52.238;10.680;2024-02-21T03:33:42;2.30;;;1.20;;
80799;SDS011;70202;52.238;10.680;2024-02-21T03:34:43;1.75;;;1.00;;
80799;SDS011;70202;52.238;10.680;2024-02-21T03:35:43;1.42;;;0.93;;
80799;SDS011;70202;52.238;10.680;2024-02-21T03:36:43;1.85;;;1.00;;
80799;SDS011;70202;52.238;10.680;2024-02-21T03:37:46;1.90;;;0.98;;
80799;SDS011;70202;52.238;10.680;2024-02-21T03:38:47;1.80;;;0.90;;
80799;SDS011;70202;52.238;10.680;2024-02-21T03:39:47;1.38;;;0.95;;
80799;SDS011;70202;52.238;10.680;2024-02-21T03:40:48;2.45;;;1.10;;
80799;SDS011;70202;52.238;10.680;2024-02-21T03:41:48;2.38;;;1.27;;
80799;SDS011;70202;52.238;10.680;2024-02-21T03:42:49;2.08;;;1.10;;
80799;SDS011;70202;52.238;10.680;2024-02-21T03:43:49;1.90;;;1.10;;
80799;SDS011;70202;52.238;10.680;2024-02-21T03:44:49;1.90;;;0.90;;
80799;SDS011;70202;52.238;10.680;2024-02-21T03:45:50;1.33;;;0.90;;
80799;SDS011;70202;52.238;10.680;2024-02-21T03:46:50;2.10;;;1.13;;
80799;SDS011;70202;52.238;10.680;2024-02-21T03:47:51;2.20;;;1.20;;
80799;SDS011;70202;52.238;10.680;2024-02-21T03:48:51;1.63;;;1.00;;
80799;SDS011;70202;52.238;10.680;2024-02-21T03:49:51;1.88;;;1.13;;
80799;SDS011;70202;52.238;10.680;2024-02-21T03:50:52;2.03;;;1.10;;
80799;SDS011;70202;52.238;10.680;2024-02-21T03:51:52;1.75;;;0.90;;
80799;SDS011;70202;52.238;10.680;2024-02-21T03:52:53;1.63;;;0.95;;
80799;SDS011;70202;52.238;10.680;2024-02-21T03:53:53;1.45;;;0.98;;
80799;SDS011;70202;52.238;10.680;2024-02-21T03:54:54;1.20;;;0.80;;
80799;SDS011;70202;52.238;10.680;2024-02-21T03:55:55;1.60;;;0.85;;
80799;SDS011;70202;52.238;10.680;2024-02-21T03:56:56;1.83;;;1.10;;
80799;SDS011;70202;52.238;10.680;2024-02-21T03:57:56;1.27;;;0.80;;
80799;SDS011;70202;52.238;10.680;2024-02-21T03:58:57;1.83;;;0.90;;
80799;SDS011;70202;52.238;10.680;2024-02-21T03:59:58;1.52;;;0.75;;
80799;SDS011;70202;52.238;10.680;2024-02-21T04:01:01;2.25;;;1.17;;
80799;SDS011;70202;52.238;10.680;2024-02-21T04:02:02;1.48;;;1.00;;
80799;SDS011;70202;52.238;10.680;2024-02-21T04:03:08;1.88;;;1.00;;
80799;SDS011;70202;52.238;10.680;2024-02-21T04:04:09;1.27;;;0.85;;
80799;SDS011;70202;52.238;10.680;2024-02-21T04:05:10;2.33;;;1.10;;
80799;SDS011;70202;52.238;10.680;2024-02-21T04:06:11;1.90;;;1.02;;
80799;SDS011;70202;52.238;10.680;2024-02-21T04:07:11;1.70;;;1.08;;
80799;SDS011;70202;52.238;10.680;2024-02-21T04:08:13;2.10;;;1.10;;
80799;SDS011;70202;52.238;10.680;2024-02-21T04:09:14;2.40;;;1.23;;
80799;SDS011;70202;52.238;10.680;2024-02-21T04:10:14;1.67;;;1.00;;
80799;SDS011;70202;52.238;10.680;2024-02-21T04:11:15;1.85;;;0.90;;
80799;SDS011;70202;52.238;10.680;2024-02-21T04:12:15;1.88;;;1.00;;
80799;SDS011;70202;52.238;10.680;2024-02-21T04:13:15;1.70;;;0.90;;
80799;SDS011;70202;52.238;10.680;2024-02-21T04:14:16;1.95;;;1.20;;
80799;SDS011;70202;52.238;10.680;2024-02-21T04:15:16;2.40;;;1.30;;
80799;SDS011;70202;52.238;10.680;2024-02-21T04:16:17;1.70;;;0.90;;
80799;SDS011;70202;52.238;10.680;2024-02-21T04:17:17;1.50;;;0.90;;
80799;SDS011;70202;52.238;10.680;2024-02-21T04:18:18;1.52;;;0.93;;
80799;SDS011;70202;52.238;10.680;2024-02-21T04:19:18;1.67;;;1.10;;
80799;SDS011;70202;52.238;10.680;2024-02-21T04:20:19;1.08;;;0.75;;
80799;SDS011;70202;52.238;10.680;2024-02-21T04:21:19;1.45;;;0.82;;
80799;SDS011;70202;52.238;10.680;2024-02-21T04:22:19;2.00;;;1.00;;
80799;SDS011;70202;52.238;10.680;2024-02-21T04:23:20;1.73;;;1.00;;
80799;SDS011;70202;52.238;10.680;2024-02-21T04:24:20;1.80;;;0.80;;
80799;SDS011;70202;52.238;10.680;2024-02-21T04:25:20;1.25;;;0.85;;
80799;SDS011;70202;52.238;10.680;2024-02-21T04:26:21;1.50;;;0.80;;
80799;SDS011;70202;52.238;10.680;2024-02-21T04:27:21;1.73;;;1.00;;
80799;SDS011;70202;52.238;10.680;2024-02-21T04:28:22;2.10;;;1.08;;
80799;SDS011;70202;52.238;10.680;2024-02-21T04:29:23;2.10;;;1.02;;
80799;SDS011;70202;52.238;10.680;2024-02-21T04:30:24;1.48;;;0.80;;
80799;SDS011;70202;52.238;10.680;2024-02-21T04:31:24;1.80;;;0.93;;
80799;SDS011;70202;52.238;10.680;2024-02-21T04:32:24;1.48;;;0.85;;
80799;SDS011;70202;52.238;10.680;2024-02-21T04:33:27;1.63;;;0.90;;
80799;SDS011;70202;52.238;10.680;2024-02-21T04:34:27;1.77;;;1.08;;
80799;SDS011;70202;52.238;10.680;2024-02-21T04:35:28;1.48;;;0.82;;
80799;SDS011;70202;52.238;10.680;2024-02-21T04:36:28;1.98;;;1.00;;
80799;SDS011;70202;52.238;10.680;2024-02-21T04:37:28;1.83;;;0.95;;
80799;SDS011;70202;52.238;10.680;2024-02-21T04:38:29;1.52;;;0.90;;
80799;SDS011;70202;52.238;10.680;2024-02-21T04:39:30;1.20;;;0.85;;
80799;SDS011;70202;52.238;10.680;2024-02-21T04:40:30;1.70;;;1.00;;
80799;SDS011;70202;52.238;10.680;2024-02-21T04:41:31;1.70;;;0.90;;
80799;SDS011;70202;52.238;10.680;2024-02-21T04:42:31;1.92;;;1.00;;
80799;SDS011;70202;52.238;10.680;2024-02-21T04:43:32;1.75;;;1.00;;
80799;SDS011;70202;52.238;10.680;2024-02-21T04:44:32;1.45;;;0.80;;
80799;SDS011;70202;52.238;10.680;2024-02-21T04:45:33;1.83;;;0.90;;
80799;SDS011;70202;52.238;10.680;2024-02-21T04:46:33;1.13;;;0.77;;
80799;SDS011;70202;52.238;10.680;2024-02-21T04:47:33;0.90;;;0.70;;
80799;SDS011;70202;52.238;10.680;2024-02-21T04:48:34;1.23;;;0.70;;
80799;SDS011;70202;52.238;10.680;2024-02-21T04:49:35;1.80;;;1.00;;
80799;SDS011;70202;52.238;10.680;2024-02-21T04:50:35;1.70;;;0.88;;
80799;SDS011;70202;52.238;10.680;2024-02-21T04:51:35;1.08;;;0.70;;
80799;SDS011;70202;52.238;10.680;2024-02-21T04:52:36;1.77;;;0.98;;
80799;SDS011;70202;52.238;10.680;2024-02-21T04:53:36;0.75;;;0.68;;
80799;SDS011;70202;52.238;10.680;2024-02-21T04:54:37;1.70;;;0.82;;
80799;SDS011;70202;52.238;10.680;2024-02-21T04:55:37;1.23;;;0.90;;
80799;SDS011;70202;52.238;10.680;2024-02-21T04:56:38;1.75;;;0.88;;
80799;SDS011;70202;52.238;10.680;2024-02-21T04:57:38;1.25;;;0.85;;
80799;SDS011;70202;52.238;10.680;2024-02-21T04:58:39;1.50;;;0.88;;
80799;SDS011;70202;52.238;10.680;2024-02-21T04:59:39;2.00;;;0.90;;
80799;SDS011;70202;52.238;10.680;2024-02-21T05:00:40;1.77;;;0.93;;
80799;SDS011;70202;52.238;10.680;2024-02-21T05:01:40;1.95;;;1.00;;
80799;SDS011;70202;52.238;10.680;2024-02-21T05:02:40;1.55;;;0.90;;
80799;SDS011;70202;52.238;10.680;2024-02-21T05:03:41;1.55;;;0.88;;
80799;SDS011;70202;52.238;10.680;2024-02-21T05:04:44;1.35;;;0.98;;
80799;SDS011;70202;52.238;10.680;2024-02-21T05:05:45;1.48;;;0.82;;
80799;SDS011;70202;52.238;10.680;2024-02-21T05:06:45;1.63;;;0.90;;
80799;SDS011;70202;52.238;10.680;2024-02-21T05:07:45;1.80;;;0.82;;
80799;SDS011;70202;52.238;10.680;2024-02-21T05:08:46;1.20;;;0.80;;
80799;SDS011;70202;52.238;10.680;2024-02-21T05:09:47;1.23;;;0.68;;
80799;SDS011;70202;52.238;10.680;2024-02-21T05:10:48;1.52;;;0.93;;
80799;SDS011;70202;52.238;10.680;2024-02-21T05:11:48;1.85;;;0.90;;
80799;SDS011;70202;52.238;10.680;2024-02-21T05:12:48;1.60;;;0.77;;
80799;SDS011;70202;52.238;10.680;2024-02-21T05:13:50;1.60;;;0.80;;
80799;SDS011;70202;52.238;10.680;2024-02-21T05:14:50;1.77;;;0.90;;
80799;SDS011;70202;52.238;10.680;2024-02-21T05:15:50;1.75;;;0.93;;
80799;SDS011;70202;52.238;10.680;2024-02-21T05:16:51;1.25;;;0.80;;
80799;SDS011;70202;52.238;10.680;2024-02-21T05:17:52;2.05;;;0.98;;
80799;SDS011;70202;52.238;10.680;2024-02-21T05:18:52;0.98;;;0.70;;
80799;SDS011;70202;52.238;10.680;2024-02-21T05:19:53;1.85;;;0.90;;
80799;SDS011;70202;52.238;10.680;2024-02-21T05:20:53;1.88;;;1.00;;
80799;SDS011;70202;52.238;10.680;2024-02-21T05:21:54;0.80;;;0.63;;
80799;SDS011;70202;52.238;10.680;2024-02-21T05:22:54;1.30;;;0.80;;
80799;SDS011;70202;52.238;10.680;2024-02-21T05:23:55;1.75;;;0.82;;
80799;SDS011;70202;52.238;10.680;2024-02-21T05:24:55;1.35;;;0.88;;
80799;SDS011;70202;52.238;10.680;2024-02-21T05:25:55;1.75;;;0.70;;
80799;SDS011;70202;52.238;10.680;2024-02-21T05:26:56;1.27;;;0.82;;
80799;SDS011;70202;52.238;10.680;2024-02-21T05:27:56;2.45;;;0.93;;
80799;SDS011;70202;52.238;10.680;2024-02-21T05:29:01;1.83;;;0.90;;
80799;SDS011;70202;52.238;10.680;2024-02-21T05:30:02;1.40;;;0.90;;
80799;SDS011;70202;52.238;10.680;2024-02-21T05:31:03;1.98;;;1.00;;
80799;SDS011;70202;52.238;10.680;2024-02-21T05:32:04;1.55;;;1.00;;
80799;SDS011;70202;52.238;10.680;2024-02-21T05:33:07;2.13;;;0.90;;
80799;SDS011;70202;52.238;10.680;2024-02-21T05:34:07;1.35;;;0.73;;
80799;SDS011;70202;52.238;10.680;2024-02-21T05:35:08;2.00;;;0.90;;
80799;SDS011;70202;52.238;10.680;2024-02-21T05:36:09;2.55;;;1.00;;
80799;SDS011;70202;52.238;10.680;2024-02-21T05:37:09;1.25;;;0.80;;
80799;SDS011;70202;52.238;10.680;2024-02-21T05:38:09;1.20;;;0.70;;
80799;SDS011;70202;52.238;10.680;2024-02-21T05:39:12;1.55;;;0.82;;
80799;SDS011;70202;52.238;10.680;2024-02-21T05:40:13;1.80;;;0.85;;
80799;SDS011;70202;52.238;10.680;2024-02-21T05:41:13;1.27;;;0.70;;
80799;SDS011;70202;52.238;10.680;2024-02-21T05:42:14;0.98;;;0.70;;
80799;SDS011;70202;52.238;10.680;2024-02-21T05:43:14;1.08;;;0.60;;
80799;SDS011;70202;52.238;10.680;2024-02-21T05:44:15;1.75;;;0.90;;
80799;SDS011;70202;52.238;10.680;2024-02-21T05:45:15;1.52;;;0.80;;
80799;SDS011;70202;52.238;10.680;2024-02-21T05:46:18;1.20;;;0.70;;
80799;SDS011;70202;52.238;10.680;2024-02-21T05:47:19;1.35;;;0.73;;
80799;SDS011;70202;52.238;10.680;2024-02-21T05:48:21;0.98;;;0.80;;
80799;SDS011;70202;52.238;10.680;2024-02-21T05:49:22;1.55;;;0.77;;
80799;SDS011;70202;52.238;10.680;2024-02-21T05:50:23;2.05;;;0.90;;
80799;SDS011;70202;52.238;10.680;2024-02-21T05:51:24;1.85;;;0.88;;
80799;SDS011;70202;52.238;10.680;2024-02-21T05:52:24;1.17;;;0.68;;
80799;SDS011;70202;52.238;10.680;2024-02-21T05:53:24;0.98;;;0.73;;
80799;SDS011;70202;52.238;10.680;2024-02-21T05:54:25;1.10;;;0.70;;
80799;SDS011;70202;52.238;10.680;2024-02-21T05:55:25;1.23;;;0.90;;
80799;SDS011;70202;52.238;10.680;2024-02-21T05:56:26;1.73;;;0.80;;
80799;SDS011;70202;52.238;10.680;2024-02-21T05:57:26;1.73;;;0.90;;
80799;SDS011;70202;52.238;10.680;2024-02-21T05:58:26;1.58;;;0.80;;
80799;SDS011;70202;52.238;10.680;2024-02-21T05:59:27;1.17;;;0.77;;
80799;SDS011;70202;52.238;10.680;2024-02-21T06:00:28;1.20;;;0.90;;
80799;SDS011;70202;52.238;10.680;2024-02-21T06:01:28;0.90;;;0.63;;